Arthur Monteiro

Scout - Flamengo
2 Sep 2027
Donnerstag
Verarbeitung

Persönlichkeit

Anpassungsfähigkeit (9) Ehrgeiz (1) Kontroverse (16) Loyalität (4) Druck (13) Professionalität (19) Fairness (20) Temperament (10)

Profil

Trainerstil Demokratisch
Lizenz Kontinentale C
Entschlossenheit 13
Menschenführung 14
Motivation 10
Disziplin 8
Arbeitszufriedenheit
77%
Ermüdung
0%
Rolle Scout
Gehalt 103.7K p/W
Vertrag 14.03.2028

Leistung

Verhalten Gut
Trainingseffektivität
45%
Spielerentwicklung
35%
Verletzungsprävention
55%
Taktische Umsetzung
80%

Letzte Ereignisse

Nahm an einer Scouting-Besprechung teil jetzt
Empfahl ein Transferziel jetzt
Nahm an einer Scouting-Besprechung teil jetzt
Nahm an einer Scouting-Besprechung teil 7T her
Empfahl ein Transferziel 7T her
Nahm an einer Scouting-Besprechung teil 7T her
Nahm an einer Scouting-Besprechung teil 7T her
Nahm an einer Scouting-Besprechung teil 7T her

Aktuell beobachtet

237
Spieler Verein Status Fähigkeit Vertrauen Beobachtet Zuletzt beobachtet Letzte Stimme
Bruninho Bragantino Aktiv 133 / 136 42% 1 / 1m 25.08.2027 -
Ruan Tressoldi Atlético Mineiro Aktiv 118 / 124 83% 1 19.07.2027 Befürworten
Diego Hernández Sport Recife Aktiv 122 / 122 30% 1 / 1m 07.07.2027 -
Federico Chiesa Liverpool Aktiv 159 / 151 40% 5 30.05.2027 -
Bradley Barcola Liverpool Aktiv 158 / 161 40% 5 30.05.2027 -
Borja Sainz Fiorentina Aktiv 148 / 144 40% 8 30.05.2027 -
Jérémy Doku Manchester City Aktiv 173 / 161 40% 3 28.05.2027 -
Moisés Caicedo Chelsea Aktiv 165 / 164 40% 5 28.05.2027 Beobachten
Gabriel Martinelli Brighton Aktiv 165 / 165 40% 2 28.05.2027 -
Georginio Rutter Brighton Aktiv 151 / 149 40% 3 27.05.2027 -
Kai Havertz Arsenal Aktiv 162 / 158 40% 3 27.05.2027 -
Harry Clarke Preston Aktiv 126 / 126 40% 2 27.05.2027 -
Vinícius Júnior Arsenal Aktiv 180 / 171 40% 4 26.05.2027 -
Xavi Simons Tottenham Aktiv 162 / 157 40% 2 26.05.2027 -
Derensili Sanches Fernandes Huddersfield Town Aktiv 130 / 128 40% 2 25.05.2027 -
Cole Palmer Chelsea Aktiv 174 / 169 40% 2 25.05.2027 Mehr Infos nötig
Harry Wilson Leeds United Aktiv 149 / 145 40% 2 24.05.2027 -
Phil Foden Manchester City Aktiv 176 / 170 40% 4 24.05.2027 -
Carlos Vicente Birmingham Aktiv 145 / 143 40% 4 23.05.2027 -
Kerem Aktürkoğlu Fenerbahce Aktiv 141 / 146 40% 2 23.05.2027 -
Callum Doyle Wrexham Aktiv 131 / 132 40% 2 23.05.2027 -
Amadou Onana Aston Villa Aktiv 153 / 156 40% 2 23.05.2027 Mehr Infos nötig
Tyler Adams Bournemouth Aktiv 153 / 155 40% 2 22.05.2027 -
Reece James Chelsea Aktiv 175 / 170 40% 1 22.05.2027 -
Nuno Tavares Lazio Aktiv 150 / 147 40% 1 21.05.2027 -
Nico González Newcastle United Aktiv 156 / 159 40% 1 21.05.2027 -
Dango Ouattara Brentford Aktiv 145 / 140 40% 2 20.05.2027 -
Ronald Swansea City Aktiv 128 / 127 40% 1 20.05.2027 -
Matheus Araújo Oeste Aktiv 89 / 89 30% 1 / 1m 19.05.2027 -
Wellerson Sampaio Correa Aktiv 101 / 101 30% 1 / 1m 19.05.2027 -
Matthijs de Ligt Manchester United Aktiv 156 / 166 40% 2 17.05.2027 -
Curtis Jones Inter Aktiv 164 / 156 40% 4 17.05.2027 -
Alexander Isak Liverpool Aktiv 172 / 172 40% 2 17.05.2027 -
Isaiah Jones Luton Town Aktiv 128 / 129 40% 1 17.05.2027 -
Jan Paul van Hecke Tottenham Aktiv 160 / 154 40% 1 16.05.2027 Mehr Infos nötig
William Saliba Arsenal Aktiv 175 / 177 40% 1 16.05.2027 -
Sven Botman Newcastle United Aktiv 160 / 154 40% 1 16.05.2027 -
Mats Wieffer Brighton Aktiv 143 / 148 40% 4 14.05.2027 -
Cody Gakpo Liverpool Aktiv 156 / 158 40% 1 14.05.2027 -
Alessandro Buongiorno Sassuolo Aktiv 153 / 157 40% 1 14.05.2027 -
Jacob Ramsey Newcastle United Aktiv 154 / 151 40% 2 11.05.2027 -
Mohammed Kudus Tottenham Aktiv 163 / 155 40% 3 11.05.2027 -
Kiernan Dewsbury-Hall Everton Aktiv 148 / 147 40% 2 11.05.2027 -
Tom Fellows Southampton Aktiv 134 / 131 40% 3 09.05.2027 -
Florian Wirtz Liverpool Aktiv 173 / 178 40% 2 09.05.2027 -
Rayan Cherki Manchester City Aktiv 161 / 159 40% 1 09.05.2027 -
Noussair Mazraoui Manchester United Aktiv 152 / 149 40% 3 08.05.2027 -
Francisco Conceição Juventus Aktiv 158 / 157 40% 1 07.05.2027 -
Kasey McAteer Ipswich Town Aktiv 126 / 127 40% 1 06.05.2027 -
Carlos Alcaraz Everton Aktiv 144 / 150 40% 4 03.05.2027 -
Nicolas Jackson Aston Villa Aktiv 154 / 152 40% 1 02.05.2027 -
Antoine Semenyo Manchester City Aktiv 165 / 152 40% 1 01.05.2027 -
Martin Ødegaard Arsenal Aktiv 184 / 178 40% 1 01.05.2027 -
João Pedro Chelsea Aktiv 157 / 160 40% 3 30.04.2027 Beobachten
Giacomo Raspadori Atalanta Aktiv 153 / 146 40% 7 30.04.2027 -
Ryan Sessegnon Fulham Aktiv 146 / 144 40% 1 29.04.2027 -
Sandro Tonali Tottenham Aktiv 173 / 175 40% 1 27.04.2027 -
Kevin Fulham Aktiv 147 / 147 40% 1 27.04.2027 -
Matt O'Riley Brighton Aktiv 144 / 148 40% 1 26.04.2027 -
Callum Hudson-Odoi Nottingham Forest Aktiv 147 / 151 40% 1 26.04.2027 -
William Gomes Porto Aktiv 148 / 140 40% 6 24.04.2027 -
Rico Lewis Manchester City Aktiv 147 / 158 40% 2 23.04.2027 -
Williams Manyama SuperSport United Aktiv 119 / 114 40% 1 23.04.2027 -
Jake O'Brien Everton Aktiv 147 / 153 40% 1 23.04.2027 -
Rodrigo Zalazar Sporting CP Aktiv 151 / 153 40% 2 21.04.2027 -
Morgan Rogers Chelsea Aktiv 164 / 163 40% 1 21.04.2027 -
Alejandro Zendejas Club America Aktiv 143 / 136 40% 5 20.04.2027 -
Iván Fresneda Sporting CP Aktiv 139 / 139 40% 3 18.04.2027 -
Francisco Moura Lusitânia Lourosa Aktiv 140 / 143 40% 4 18.04.2027 -
Mason Mount Manchester United Aktiv 151 / 151 40% 1 18.04.2027 -
Sergi Altimira Sporting CP Aktiv 137 / 143 40% 1 18.04.2027 -
Quinten Timber Crystal Palace Aktiv 155 / 147 40% 1 18.04.2027 -
Dodi Lukébakio Benfica Aktiv 149 / 143 40% 5 16.04.2027 -
Telmo Arcanjo Vitoria Guimaraes Aktiv 129 / 117 40% 2 15.04.2027 -
Ole Pohlmann Rio Ave Aktiv 123 / 125 40% 2 15.04.2027 -
Makan Aïko Tondela Aktiv 119 / 113 40% 2 14.04.2027 -
Finn Azaz Southampton Aktiv 129 / 131 40% 1 14.04.2027 -
Adrien Truffert Bournemouth Aktiv 156 / 155 40% 1 13.04.2027 -
João Mendes Vitoria Guimaraes Aktiv 122 / 122 40% 1 12.04.2027 -
Rodrigo Pinheiro Famalicao Aktiv 125 / 132 40% 1 12.04.2027 -
Welington Southampton Aktiv 127 / 131 40% 1 12.04.2027 -
Mario Dorgeles Braga Aktiv 132 / 133 40% 1 12.04.2027 -
Pau Víctor AVS Aktiv 138 / 129 40% 8 11.04.2027 -
Geny Sporting CP Aktiv 145 / 144 40% 5 11.04.2027 -
Naïs Djouahra Arouca Aktiv 126 / 115 40% 2 11.04.2027 -
Tamble Monteiro Rio Ave Aktiv 115 / 113 40% 1 06.04.2027 -
Joe Gelhardt Hull City Aktiv 130 / 140 40% 1 06.04.2027 -
Gustavo Silva Vitoria Guimaraes Aktiv 124 / 126 40% 3 05.04.2027 -
Nordi Mukiele Sunderland Aktiv 148 / 141 40% 3 03.04.2027 -
Xaver Schlager Nottingham Forest Aktiv 145 / 142 40% 4 03.04.2027 -
Ismaïla Sarr Crystal Palace Aktiv 151 / 143 40% 3 03.04.2027 -
Anton Stach Leeds United Aktiv 151 / 146 40% 3 02.04.2027 -
Osame Sahraoui LOSC Lille Aktiv 147 / 139 40% 4 31.03.2027 -
Hwang In-Beom Porto Aktiv 147 / 138 40% 4 31.03.2027 -
Che Adams Torino Aktiv 140 / 135 40% 1 31.03.2027 -
Joaquín Panichelli Le Havre AC Aktiv 149 / 139 40% 3 30.03.2027 -
Alfonso Trezza Arouca Aktiv 124 / 126 40% 2 29.03.2027 -
Morgan Whittaker Middlesbrough Aktiv 137 / 131 40% 4 29.03.2027 -
Santi García Gil Vicente Aktiv 131 / 137 40% 3 29.03.2027 -
Víctor Gómez Braga Aktiv 134 / 143 40% 3 28.03.2027 -
Malick Fofana Sunderland Aktiv 137 / 141 40% 2 28.03.2027 -
Heorhii Sudakov Benfica Aktiv 142 / 146 40% 4 26.03.2027 -
Tino Livramento Newcastle United Aktiv 161 / 151 40% 1 25.03.2027 -
Sofiane Diop OGC Nice Aktiv 141 / 145 40% 1 25.03.2027 -
Aaron Hickey Brentford Aktiv 144 / 152 40% 2 24.03.2027 -
Alberto Costa Porto Aktiv 149 / 153 40% 9 24.03.2027 -
Iker Benito Queretaro Aktiv 126 / 123 40% 2 24.03.2027 -
Ozziel Herrera Tigres Aktiv 132 / 131 40% 3 23.03.2027 -
Ansu Fati Monaco Aktiv 136 / 132 40% 1 22.03.2027 -
Figueiredo Alverca Aktiv 131 / 123 40% 6 20.03.2027 -
Valery Académico de Viseu Aktiv 122 / 120 40% 1 20.03.2027 -
Ritsu Doan Benfica Aktiv 147 / 156 40% 3 18.03.2027 -
Jhon Arias Palmeiras Aktiv 139 / 143 40% 2 18.03.2027 -
Fotis Ioannidis Rio Ave Aktiv 141 / 132 40% 2 17.03.2027 -
José Manuel López Palmeiras Aktiv 136 / 135 40% 5 17.03.2027 -
Erick Sánchez OGC Nice Aktiv 148 / 140 40% 7 17.03.2027 -
Leandro Antonetti Estrela da Amadora Aktiv 102 / 105 40% 1 17.03.2027 -
Yankuba Minteh Brighton Aktiv 154 / 159 40% 1 17.03.2027 -
Barış Alper Yılmaz Galatasaray Aktiv 145 / 151 40% 4 16.03.2027 -
Félix Lemaréchal Club Brugge Aktiv 143 / 144 40% 3 12.03.2027 -
Roberto Fernández Braga Aktiv 144 / 139 40% 3 11.03.2027 -
Amine Adli Bournemouth Aktiv 139 / 149 40% 2 08.03.2027 -
Gianluca Prestianni Benfica Aktiv 138 / 141 40% 2 04.03.2027 -
Orbelín Pineda Monterrey Aktiv 143 / 137 40% 2 03.03.2027 -
Dylan Nandín Arouca Aktiv 117 / 112 40% 1 01.03.2027 -
Nicolò Tresoldi Club Brugge Aktiv 132 / 140 40% 1 01.03.2027 -
Florentino Luís Ipswich Town Aktiv 137 / 133 40% 1 26.02.2027 -
Adriano Bertaccini Anderlecht Aktiv 127 / 127 40% 1 23.02.2027 -
Marezi Portsmouth Aktiv 120 / 124 40% 1 23.02.2027 -
Jalen Blesa Rio Ave Aktiv 115 / 125 40% 1 21.02.2027 -
Adnan Courtois KV Oostende Aktiv 139 / 134 40% 3 19.02.2027 -
Vinícius Lopes Santa Clara Aktiv 117 / 116 40% 1 19.02.2027 -
Will Lankshear Middlesbrough Aktiv 124 / 135 40% 1 19.02.2027 -
Toni Fruk KV Mechelen Aktiv 136 / 126 40% 1 19.02.2027 -
Jan Virgili Club Brugge Aktiv 134 / 126 40% 1 19.02.2027 -
Gabri Martínez Braga Aktiv 136 / 127 40% 2 17.02.2027 -
Juanlu Bournemouth Aktiv 144 / 140 40% 1 15.02.2027 -
Beni Mukendi Vitoria Guimaraes Aktiv 130 / 123 40% 1 15.02.2027 -
Victor Froholdt Porto Aktiv 144 / 163 40% 4 13.02.2027 -
Taichi Fukui Arouca Aktiv 130 / 136 40% 1 11.02.2027 -
Óscar Mingueza Crystal Palace Aktiv 151 / 146 40% 5 10.02.2027 -
Brian Rodríguez Club America Aktiv 128 / 124 40% 1 10.02.2027 -
Razvan Balasa Crvena Zvezda Aktiv 149 / 151 40% 8 07.02.2027 -
Henrique Araújo Casa Pia Aktiv 126 / 113 40% 2 06.02.2027 -
Guilherme Neiva AVS Aktiv 109 / 109 40% 1 05.02.2027 -
Evidence Makgopa Orlando Pirates Aktiv 112 / 119 40% 1 05.02.2027 -
Olívio Tomé Benfica Aktiv 111 / 118 40% 1 03.02.2027 -
Luís Henrique Inter Aktiv 139 / 147 40% 1 03.02.2027 -
Gonzalo Fulham Aktiv 142 / 149 40% 1 03.02.2027 -
Igor Burnley Aktiv 142 / 139 40% 1 03.02.2027 -
Aune Heggebø West Bromwich Albion Aktiv 126 / 132 40% 1 31.01.2027 -
Yousef Salech Cardiff City Aktiv 131 / 116 40% 1 31.01.2027 -
Martín Tejón Maritimo Aktiv 119 / 123 40% 2 25.01.2027 -
Miguel Falé Pacos de Ferreira Aktiv 100 / 111 40% 2 25.01.2027 -
Luis Vázquez Birmingham Aktiv 134 / 129 40% 1 25.01.2027 -
Gabriel Veron Porto Aktiv 129 / 125 40% 3 19.01.2027 -
Themba Ngcobo SuperSport United Aktiv 116 / 116 40% 1 08.01.2027 -
Manfred Ugalde Spartak Moscow Aktiv 138 / 127 40% 1 04.01.2027 -
Dawda Camara Alverca Aktiv 113 / 121 40% 1 23.12.2026 -
Ruben van Bommel Ferencvaros Aktiv 139 / 141 40% 1 22.12.2026 -
Matheus Pereira Cruzeiro Aktiv 138 / 144 40% 1 21.12.2026 -
Jean-Philippe Mateta Crystal Palace Aktiv 151 / 159 40% 11 30.11.2026 -
João Neves Paris Saint-Germain Aktiv 164 / 170 40% 1 29.11.2026 -
Rúben Neves Al-Hilal Aktiv 144 / 150 40% 1 28.11.2026 -
Leo Castledine Middlesbrough Aktiv 123 / 138 40% 1 27.11.2026 -
Robin Roefs Sunderland Aktiv 142 / 138 40% 1 25.11.2026 -
Vanderson Monaco Aktiv 145 / 146 40% 1 21.11.2026 -
Omar Alderete Sunderland Aktiv 154 / 148 40% 1 20.11.2026 -
Lewis Cook Bournemouth Aktiv 144 / 147 40% 3 19.11.2026 -
Vangelis Pavlidis Twente Aktiv 149 / 157 40% 8 17.11.2026 -
Lisandro Martínez Manchester United Aktiv 159 / 161 40% 4 17.11.2026 -
Dominic Solanke Tottenham Aktiv 153 / 146 40% 4 17.11.2026 -
Tiago Santos LOSC Lille Aktiv 141 / 138 40% 2 15.11.2026 -
Steven Bergwijn Al-Ittihad Aktiv 144 / 152 40% 4 13.11.2026 Beobachten
Pau Torres Aston Villa Aktiv 155 / 141 40% 3 09.11.2026 -
Randal Kolo Muani Juventus Aktiv 146 / 150 40% 3 09.11.2026 -
Matvey Safonov Paris Saint-Germain Aktiv 149 / 151 40% 4 07.11.2026 -
Senne Lammens Manchester United Aktiv 141 / 146 40% 2 07.11.2026 -
Patrick Berg Bodo/Glimt Aktiv 137 / 147 40% 2 03.11.2026 -
Tomás Araújo Benfica Aktiv 147 / 136 40% 3 03.11.2026 -
Luis Suárez Chelsea Aktiv 158 / 161 40% 4 01.11.2026 -
Fikayo Tomori AC Milan Aktiv 145 / 154 40% 1 30.10.2026 -
Pedro Porro Tottenham Aktiv 146 / 136 40% 1 27.10.2026 -
Cheick Doucouré Crystal Palace Aktiv 146 / 144 40% 2 24.10.2026 -
Alan Varela Porto Aktiv 138 / 138 40% 2 22.10.2026 -
Gonçalo Inácio Sporting CP Aktiv 151 / 147 40% 2 21.10.2026 -
Dean Henderson Crystal Palace Aktiv 147 / 139 40% 2 19.10.2026 -
Endrick Real Madrid Aktiv 141 / 148 40% 1 17.10.2026 -
Malick Thiaw West Ham United Aktiv 156 / 146 40% 2 13.10.2026 -
Elliot Anderson Manchester City Aktiv 155 / 149 40% 1 13.10.2026 -
Diogo Costa Manchester City Aktiv 156 / 155 40% 1 11.10.2026 -
Erick Reyes Toluca Aktiv 135 / 134 40% 1 08.10.2026 -
Conor Gallagher Tottenham Aktiv 149 / 157 40% 2 02.10.2026 -
Ferdi Kadıoğlu Brighton Aktiv 148 / 149 40% 1 02.10.2026 -
Mateo Mendoza Godoy Cruz Aktiv 118 / 121 40% 1 01.10.2026 -
Jack Hinshelwood Brighton Aktiv 141 / 143 40% 1 30.09.2026 -
Pierre Kalulu Juventus Aktiv 157 / 161 40% 1 30.09.2026 -
Ousmane Diomande Nottingham Forest Aktiv 152 / 145 40% 1 29.09.2026 -
Gabriel Gudmundsson Leeds United Aktiv 145 / 151 40% 1 27.09.2026 -
Ian Maatsen Aston Villa Aktiv 145 / 145 40% 1 27.09.2026 -
Malo Gusto Chelsea Aktiv 146 / 156 40% 2 26.09.2026 -
Martim Fernandes Porto Aktiv 133 / 138 40% 1 26.09.2026 -
Matty Cash Aston Villa Aktiv 152 / 156 40% 1 21.09.2026 -
Guillaume Restes Toulouse FC Aktiv 129 / 128 40% 1 20.09.2026 -
Yehvann Diouf OGC Nice Aktiv 136 / 131 40% 1 20.09.2026 -
Josep Martínez Inter Aktiv 134 / 138 40% 1 19.09.2026 -
Edoardo Motta Lazio Aktiv 113 / 135 40% 1 19.09.2026 -
Francesco Pio Esposito Inter Aktiv 139 / 136 40% 2 16.09.2026 -
Benjamin White Arsenal Aktiv 154 / 145 40% 2 14.09.2026 -
Marcus Rashford Manchester United Aktiv 161 / 153 40% 6 13.09.2026 -
Antonee Robinson Fulham Aktiv 157 / 141 40% 1 13.09.2026 -
Santiago Castro AS Roma Aktiv 146 / 154 40% 1 10.09.2026 -
Assane Diao Lazio Aktiv 137 / 138 40% 1 07.09.2026 -
Gonçalo Ramos AC Milan Aktiv 157 / 157 40% 2 02.09.2026 -
Dušan Vlahović Juventus Aktiv 159 / 160 40% 1 02.09.2026 -
Erick Vitória Aktiv 132 / 132 30% 1 / 1m 26.08.2026 -
Jarrod Bowen West Ham United Aktiv 159 / 146 40% 2 25.08.2026 -
Matías Fernández-Pardo Newcastle United Aktiv 135 / 146 40% 1 25.08.2026 -
Luca Koleosho Paris FC Aktiv 121 / 141 40% 1 20.08.2026 -
Jader Santa Clara Aktiv 114 / 117 56% 2 / 2m 19.08.2026 -
Fabri Vitória Aktiv 124 / 124 52% 1 / 1m 19.08.2026 -
Anderson Pato Vitória Aktiv 100 / 103 42% 1 / 1m 19.08.2026 -
Ilyas Ansah Hull City Aktiv 127 / 138 40% 1 18.08.2026 -
Ferran Torres Paris Saint-Germain Aktiv 166 / 156 40% 1 18.08.2026 -
Mateus Mané Manchester United Aktiv 130 / 147 40% 1 15.08.2026 -
Lima Atletico Goianiense Aktiv 84 / 89 30% 1 / 1m 12.08.2026 -
André Luís Mirassol Aktiv 123 / 123 30% 1 / 1m 12.08.2026 -
Georges Mikautadze Villarreal Aktiv 151 / 156 40% 1 09.08.2026 -
Rayan Bournemouth Aktiv 136 / 145 40% 1 07.08.2026 -
Senny Mayulu Paris Saint-Germain Aktiv 142 / 141 40% 1 06.08.2026 -
Donyell Malen AS Roma Aktiv 141 / 148 40% 1 06.08.2026 -
Dani Vivian Athletic Bilbao Aktiv 155 / 159 40% 1 06.08.2026 -
Marc Cucurella Real Madrid Aktiv 155 / 140 40% 1 06.08.2026 -
Jaka Bijol Leeds United Aktiv 149 / 143 40% 1 06.08.2026 -
Adam Wharton Crystal Palace Aktiv 142 / 147 40% 1 03.08.2026 -
João Simões Sporting CP Aktiv 131 / 138 40% 1 02.08.2026 -
Ismael Saibari Bayern Munich Aktiv 148 / 143 40% 1 01.08.2026 -